createdAt,value
2023-01-22T00:01:24.426Z,-0.26
2023-01-22T00:03:52.508Z,-0.24
2023-01-22T00:06:19.355Z,0.03
2023-01-22T00:08:46.775Z,-0.16
2023-01-22T00:11:13.427Z,-0.09
2023-01-22T00:13:40.282Z,-0.10
2023-01-22T00:16:07.122Z,-0.18
2023-01-22T00:18:33.830Z,-0.30
2023-01-22T00:21:00.484Z,-0.18
2023-01-22T00:23:27.037Z,-0.15
2023-01-22T00:26:13.098Z,0.08
2023-01-22T00:28:45.444Z,0.04
2023-01-22T00:31:13.090Z,-0.05
2023-01-22T00:33:40.994Z,0.21
2023-01-22T00:36:08.562Z,0.18
2023-01-22T00:38:35.136Z,0.08
2023-01-22T00:41:02.493Z,0.14
2023-01-22T00:43:29.549Z,0.29
2023-01-22T00:45:56.133Z,0.24
2023-01-22T00:48:22.705Z,0.26
2023-01-22T00:50:49.401Z,0.14
2023-01-22T00:53:16.060Z,0.30
2023-01-22T00:55:52.666Z,0.24
2023-01-22T00:58:19.431Z,-0.07
2023-01-22T01:00:46.024Z,0.07
2023-01-22T01:03:28.176Z,0.24
2023-01-22T01:05:54.938Z,-0.07
2023-01-22T01:08:21.641Z,0.08
2023-01-22T01:10:48.194Z,-0.22
2023-01-22T01:13:14.783Z,0.06
2023-01-22T01:15:42.043Z,0.16
2023-01-22T01:18:13.041Z,0.08
2023-01-22T01:20:40.233Z,0.11
2023-01-22T01:23:06.976Z,0.11
2023-01-22T01:25:33.554Z,0.09
2023-01-22T01:28:00.250Z,0.13
2023-01-22T01:30:28.006Z,0.24
2023-01-22T01:32:54.919Z,0.28
2023-01-22T01:35:24.171Z,0.21
2023-01-22T01:37:52.118Z,0.08
2023-01-22T01:40:19.988Z,0.14
2023-01-22T01:42:46.623Z,0.26
2023-01-22T01:45:25.421Z,0.36
2023-01-22T01:47:53.989Z,0.24
2023-01-22T01:50:20.711Z,0.14
2023-01-22T01:52:47.260Z,0.24
2023-01-22T01:55:14.350Z,0.31
2023-01-22T01:57:41.158Z,0.39
2023-01-22T02:00:10.701Z,0.28
2023-01-22T02:02:41.421Z,0.08
2023-01-22T02:05:08.993Z,0.25
2023-01-22T02:07:35.877Z,0.33
2023-01-22T02:10:06.259Z,0.07
2023-01-22T02:12:34.130Z,0.17
2023-01-22T02:15:03.886Z,0.24
2023-01-22T02:17:30.969Z,0.37
2023-01-22T02:19:57.561Z,0.27
2023-01-22T02:22:26.062Z,0.36
2023-01-22T02:24:52.718Z,0.30
2023-01-22T02:27:19.294Z,0.15
2023-01-22T02:29:47.677Z,0.39
2023-01-22T02:32:14.342Z,0.38
2023-01-22T02:34:41.105Z,0.32
2023-01-22T02:37:09.171Z,0.33
2023-01-22T02:39:35.807Z,0.31
2023-01-22T02:42:04.415Z,0.30
2023-01-22T02:44:34.090Z,0.22
2023-01-22T02:47:00.722Z,0.43
2023-01-22T02:49:27.663Z,0.49
2023-01-22T02:51:54.221Z,0.42
2023-01-22T02:54:21.969Z,0.34
2023-01-22T02:56:49.686Z,0.37
2023-01-22T02:59:16.252Z,0.20
2023-01-22T03:01:42.862Z,0.40
2023-01-22T03:04:12.373Z,0.31
2023-01-22T03:06:39.979Z,0.46
2023-01-22T03:09:07.352Z,0.42
2023-01-22T03:11:37.068Z,0.55
2023-01-22T03:14:26.705Z,0.19
2023-01-22T03:17:12.593Z,0.34
2023-01-22T03:19:58.121Z,0.29
2023-01-22T03:22:25.301Z,0.39
2023-01-22T03:24:53.093Z,0.36
2023-01-22T03:27:23.784Z,0.51
2023-01-22T03:29:50.477Z,0.47
2023-01-22T03:32:18.965Z,0.43
2023-01-22T03:34:45.559Z,0.47
2023-01-22T03:37:15.595Z,0.46
2023-01-22T03:39:44.445Z,0.21
2023-01-22T03:42:17.644Z,0.22
2023-01-22T03:44:44.878Z,0.28
2023-01-22T03:47:11.588Z,0.28
2023-01-22T03:49:38.233Z,0.38
2023-01-22T03:52:05.744Z,0.21
2023-01-22T03:54:32.314Z,0.37
2023-01-22T03:57:02.363Z,0.28
2023-01-22T03:59:32.116Z,0.35
2023-01-22T04:01:58.887Z,0.22
2023-01-22T04:04:25.578Z,0.50
2023-01-22T04:06:52.317Z,0.30
2023-01-22T04:09:19.014Z,0.31
2023-01-22T04:11:47.044Z,0.41
2023-01-22T04:14:15.313Z,0.39
2023-01-22T04:16:51.154Z,0.42
2023-01-22T04:19:29.343Z,0.36
2023-01-22T04:22:02.298Z,0.58
2023-01-22T04:24:29.219Z,0.57
2023-01-22T04:26:55.989Z,0.66
2023-01-22T04:29:22.622Z,0.60
2023-01-22T04:31:49.969Z,0.78
2023-01-22T04:34:19.783Z,0.75
2023-01-22T04:36:54.110Z,0.75
2023-01-22T04:39:21.350Z,0.56
2023-01-22T04:41:47.950Z,0.63
2023-01-22T04:44:14.573Z,0.61
2023-01-22T04:46:41.948Z,0.63
2023-01-22T04:49:08.532Z,0.70
2023-01-22T04:51:35.556Z,0.76
2023-01-22T04:54:02.118Z,0.64
2023-01-22T04:56:28.685Z,0.70
2023-01-22T04:58:55.305Z,0.58
2023-01-22T05:01:22.106Z,0.63
2023-01-22T05:03:49.798Z,0.66
2023-01-22T05:06:16.419Z,0.69
2023-01-22T05:08:43.009Z,0.75
2023-01-22T05:11:10.581Z,0.79
2023-01-22T05:13:43.743Z,0.60
2023-01-22T05:16:10.524Z,0.57
2023-01-22T05:18:37.204Z,0.46
2023-01-22T05:21:03.838Z,0.31
2023-01-22T05:23:31.816Z,0.64
2023-01-22T05:25:58.395Z,0.55
2023-01-22T05:28:51.045Z,0.73
2023-01-22T05:31:23.996Z,0.70
2023-01-22T05:34:00.642Z,0.71
2023-01-22T05:36:28.687Z,0.76
2023-01-22T05:38:59.401Z,0.84
2023-01-22T05:41:26.776Z,0.83
2023-01-22T05:43:54.510Z,0.58
2023-01-22T05:46:25.939Z,0.60
2023-01-22T05:48:58.861Z,0.76
2023-01-22T05:51:27.272Z,0.87
2023-01-22T05:53:54.014Z,0.82
2023-01-22T05:56:20.640Z,0.77
2023-01-22T05:58:47.202Z,0.82
2023-01-22T06:01:13.878Z,0.83
2023-01-22T06:03:44.834Z,0.88
2023-01-22T06:06:14.359Z,0.97
2023-01-22T06:08:42.755Z,0.97
2023-01-22T06:11:13.528Z,0.98
2023-01-22T06:13:44.093Z,0.91
2023-01-22T06:16:22.583Z,0.98
2023-01-22T06:18:52.072Z,0.85
2023-01-22T06:21:18.755Z,0.76
2023-01-22T06:23:45.337Z,0.87
2023-01-22T06:26:13.006Z,0.83
2023-01-22T06:28:41.225Z,0.71
2023-01-22T06:31:08.040Z,0.81
2023-01-22T06:33:36.952Z,0.85
2023-01-22T06:36:04.737Z,0.96
2023-01-22T06:38:31.364Z,0.83
2023-01-22T06:41:00.941Z,0.78
2023-01-22T06:43:28.648Z,0.91
2023-01-22T06:45:55.348Z,0.90
2023-01-22T06:48:38.597Z,0.90
2023-01-22T06:51:05.536Z,0.91
2023-01-22T06:53:32.129Z,0.84
2023-01-22T06:55:59.111Z,1.01
2023-01-22T06:58:26.512Z,0.95
2023-01-22T07:00:53.124Z,1.03
2023-01-22T07:03:19.753Z,1.07
2023-01-22T07:05:46.373Z,0.91
2023-01-22T07:08:15.788Z,0.98
2023-01-22T07:10:42.364Z,1.06
2023-01-22T07:13:10.396Z,1.10
2023-01-22T07:15:37.016Z,1.12
2023-01-22T07:18:03.642Z,1.13
2023-01-22T07:20:31.946Z,0.96
2023-01-22T07:22:59.888Z,1.03
2023-01-22T07:25:27.303Z,1.15
2023-01-22T07:27:58.597Z,1.16
2023-01-22T07:30:25.198Z,1.24
2023-01-22T07:32:51.771Z,1.25
2023-01-22T07:35:18.830Z,1.23
2023-01-22T07:37:51.361Z,1.25
2023-01-22T07:40:20.508Z,1.23
2023-01-22T07:42:47.723Z,1.26
2023-01-22T07:45:14.351Z,1.21
2023-01-22T07:47:40.998Z,1.23
2023-01-22T07:50:07.917Z,1.28
2023-01-22T07:52:34.479Z,1.33
2023-01-22T07:55:01.064Z,1.02
2023-01-22T07:57:27.634Z,1.16
2023-01-22T07:59:54.193Z,1.21
2023-01-22T08:02:20.897Z,1.22
2023-01-22T08:04:47.983Z,1.30
2023-01-22T08:07:15.473Z,1.25
2023-01-22T08:09:42.003Z,1.35
2023-01-22T08:12:08.572Z,1.24
2023-01-22T08:14:35.113Z,1.28
2023-01-22T08:17:01.693Z,1.12
2023-01-22T08:19:29.638Z,1.18
2023-01-22T08:21:56.367Z,1.25
2023-01-22T08:24:23.397Z,1.29
2023-01-22T08:26:49.959Z,1.37
2023-01-22T08:29:16.524Z,1.35
2023-01-22T08:31:43.179Z,1.31
2023-01-22T08:34:09.816Z,1.38
2023-01-22T08:36:36.458Z,1.21
2023-01-22T08:39:03.022Z,1.27
2023-01-22T08:41:32.642Z,1.28
2023-01-22T08:43:59.234Z,1.24
2023-01-22T08:46:26.948Z,1.25
2023-01-22T08:48:53.608Z,1.38
2023-01-22T08:51:20.256Z,1.27
2023-01-22T08:53:46.848Z,1.20
2023-01-22T08:56:13.399Z,1.27
2023-01-22T08:58:40.654Z,1.20
2023-01-22T09:01:07.284Z,1.23
2023-01-22T09:03:35.577Z,1.32
2023-01-22T09:06:02.120Z,1.29
2023-01-22T09:08:28.665Z,1.47
2023-01-22T09:10:55.297Z,1.57
2023-01-22T09:13:21.838Z,1.46
2023-01-22T09:15:48.822Z,1.34
2023-01-22T09:18:15.385Z,1.41
2023-01-22T09:20:41.914Z,1.30
2023-01-22T09:23:08.447Z,1.48
2023-01-22T09:25:35.037Z,1.54
2023-01-22T09:28:02.800Z,1.53
2023-01-22T09:30:30.613Z,1.50
2023-01-22T09:32:57.228Z,1.48
2023-01-22T09:35:24.042Z,1.36
2023-01-22T09:37:50.642Z,1.29
2023-01-22T09:40:21.598Z,1.40
2023-01-22T09:42:48.598Z,1.41
2023-01-22T09:45:15.163Z,1.30
2023-01-22T09:47:47.613Z,1.43
2023-01-22T09:50:15.498Z,1.53
2023-01-22T09:52:42.150Z,1.54
2023-01-22T09:55:12.847Z,1.49
2023-01-22T09:57:49.740Z,1.53
2023-01-22T10:00:18.050Z,1.39
2023-01-22T10:02:53.128Z,1.54
2023-01-22T10:05:33.712Z,1.44
2023-01-22T10:08:06.350Z,1.50
2023-01-22T10:10:32.865Z,1.67
2023-01-22T10:13:01.699Z,1.58
2023-01-22T10:15:28.226Z,1.67
2023-01-22T10:17:55.251Z,1.73
2023-01-22T10:20:21.878Z,1.74
2023-01-22T10:22:49.171Z,1.82
2023-01-22T10:25:16.414Z,1.69
2023-01-22T10:27:43.124Z,1.74
2023-01-22T10:30:16.240Z,1.81
2023-01-22T10:32:42.956Z,1.61
2023-01-22T10:35:20.052Z,1.72
2023-01-22T10:37:51.211Z,1.80
2023-01-22T10:40:38.170Z,1.74
2023-01-22T10:43:11.984Z,1.74
2023-01-22T10:45:39.075Z,1.61
2023-01-22T10:48:06.749Z,1.58
2023-01-22T10:50:33.289Z,1.51
2023-01-22T10:52:59.911Z,1.70
2023-01-22T10:55:30.904Z,1.75
2023-01-22T10:58:04.557Z,1.73
2023-01-22T11:00:46.770Z,1.69
2023-01-22T11:03:21.428Z,1.82
2023-01-22T11:05:48.135Z,1.62
2023-01-22T11:08:15.777Z,1.55
2023-01-22T11:10:47.531Z,1.65
2023-01-22T11:13:23.319Z,1.48
2023-01-22T11:15:56.322Z,1.68
2023-01-22T11:18:25.887Z,1.82
2023-01-22T11:20:54.215Z,1.74
2023-01-22T11:23:24.582Z,1.56
2023-01-22T11:25:56.957Z,1.83
2023-01-22T11:28:28.152Z,1.83
2023-01-22T11:30:58.476Z,1.77
2023-01-22T11:33:28.108Z,1.54
2023-01-22T11:35:56.017Z,1.89
2023-01-22T11:38:25.273Z,2.02
2023-01-22T11:40:54.932Z,1.98
2023-01-22T11:46:48.888Z,2.00
2023-01-22T11:49:22.460Z,1.96
2023-01-22T11:51:48.984Z,2.15
2023-01-22T11:54:19.758Z,1.83
2023-01-22T11:56:53.210Z,1.91
2023-01-22T11:59:22.878Z,1.76
2023-01-22T12:01:49.462Z,1.83
2023-01-22T12:04:31.714Z,2.02
2023-01-22T12:07:17.190Z,2.00
2023-01-22T12:09:43.749Z,2.08
2023-01-22T12:12:10.289Z,2.04
2023-01-22T12:14:50.011Z,1.94
2023-01-22T12:17:27.408Z,1.92
2023-01-22T12:20:13.230Z,1.89
2023-01-22T12:22:42.800Z,1.95
2023-01-22T12:25:28.114Z,2.06
2023-01-22T12:27:55.701Z,2.04
2023-01-22T12:30:31.126Z,1.97
2023-01-22T12:32:59.135Z,1.97
2023-01-22T12:35:27.011Z,1.93
2023-01-22T12:38:03.737Z,2.04
2023-01-22T12:40:39.754Z,1.87
2023-01-22T12:43:06.807Z,1.89
2023-01-22T12:45:49.556Z,2.03
2023-01-22T12:48:25.384Z,1.94
2023-01-22T12:50:59.487Z,1.93
2023-01-22T12:53:27.764Z,2.11
2023-01-22T12:56:03.773Z,1.87
2023-01-22T12:58:31.781Z,1.85
2023-01-22T13:01:04.019Z,1.81
2023-01-22T13:03:32.327Z,1.72
2023-01-22T13:05:59.920Z,1.90
2023-01-22T13:08:35.727Z,2.09
2023-01-22T13:11:05.265Z,2.25
2023-01-22T13:13:40.444Z,2.18
2023-01-22T13:16:08.213Z,2.01
2023-01-22T13:18:38.434Z,2.05
2023-01-22T13:21:05.996Z,1.89
2023-01-22T13:23:33.827Z,1.99
2023-01-22T13:26:00.439Z,2.10
2023-01-22T13:28:42.156Z,2.02
2023-01-22T13:31:15.215Z,1.97
2023-01-22T13:34:06.352Z,2.06
2023-01-22T13:36:33.135Z,1.98
2023-01-22T13:39:00.226Z,2.10
2023-01-22T13:44:03.670Z,2.11
2023-01-22T13:46:30.828Z,1.95
2023-01-22T13:49:20.895Z,1.97
2023-01-22T13:51:47.919Z,2.10
2023-01-22T13:54:28.682Z,2.14
2023-01-22T13:56:58.160Z,2.12
2023-01-22T13:59:26.307Z,2.18
2023-01-22T14:01:53.214Z,2.10
2023-01-22T14:04:27.632Z,2.18
2023-01-22T14:06:54.293Z,2.24
2023-01-22T14:09:29.878Z,2.26
2023-01-22T14:11:59.516Z,2.32
2023-01-22T14:14:26.231Z,2.37
2023-01-22T14:16:53.121Z,2.42
2023-01-22T14:22:13.324Z,2.42
2023-01-22T14:25:16.928Z,2.50
2023-01-22T14:27:44.857Z,2.18
2023-01-22T14:30:14.663Z,2.36
2023-01-22T14:32:42.112Z,2.42
2023-01-22T14:35:10.072Z,2.39
2023-01-22T14:37:40.164Z,2.09
2023-01-22T14:40:07.530Z,2.40
2023-01-22T14:42:34.188Z,2.40
2023-01-22T14:45:00.779Z,2.33
2023-01-22T14:47:27.380Z,2.22
2023-01-22T14:49:54.390Z,2.13
2023-01-22T14:52:20.977Z,2.28
2023-01-22T14:54:47.535Z,2.36
2023-01-22T14:57:28.942Z,2.34
2023-01-22T14:59:55.637Z,2.40
2023-01-22T15:02:22.983Z,2.38
2023-01-22T15:05:03.212Z,2.29
